createdAt,value
2018-03-07T00:00:20.572Z,30
2018-03-07T00:01:10.062Z,29.9
2018-03-07T00:02:00.704Z,29.7
2018-03-07T00:02:50.434Z,28.5
2018-03-07T00:03:39.959Z,27.5
2018-03-07T00:04:30.502Z,27.4
2018-03-07T00:05:18.625Z,27.6
2018-03-07T00:06:10.196Z,28.2
2018-03-07T00:07:00.484Z,29.6
2018-03-07T00:07:50.024Z,32.3
2018-03-07T00:08:40.589Z,35
2018-03-07T00:09:29.541Z,34.3
2018-03-07T00:10:21.253Z,33.3
2018-03-07T00:11:10.779Z,32.9
2018-03-07T00:12:00.803Z,32.8
2018-03-07T00:12:51.156Z,32.8
2018-03-07T00:13:40.453Z,32.8
2018-03-07T00:14:31.582Z,32.8
2018-03-07T00:15:20.213Z,32.8
2018-03-07T00:16:11.364Z,32.7
2018-03-07T00:17:01.447Z,32.6
2018-03-07T00:17:51.470Z,32.4
2018-03-07T00:18:41.212Z,32.4
2018-03-07T00:19:31.522Z,32.2
2018-03-07T00:20:21.875Z,32.1
2018-03-07T00:21:11.650Z,31.9
2018-03-07T00:22:01.652Z,31.7
2018-03-07T00:22:52.113Z,31.5
2018-03-07T00:23:42.495Z,31.4
2018-03-07T00:24:31.875Z,31.2
2018-03-07T00:25:22.800Z,31.1
2018-03-07T00:26:12.845Z,30.9
2018-03-07T00:27:03.345Z,30.7
2018-03-07T00:27:52.317Z,30.6
2018-03-07T00:28:42.905Z,30.4
2018-03-07T00:29:33.557Z,30.3
2018-03-07T00:30:21.960Z,30.1
2018-03-07T00:31:13.045Z,29.9
2018-03-07T00:32:03.163Z,29.8
2018-03-07T00:32:52.949Z,29.4
2018-03-07T00:33:43.576Z,27.8
2018-03-07T00:34:32.281Z,27.3
2018-03-07T00:35:23.667Z,27.3
2018-03-07T00:36:13.692Z,27.6
2018-03-07T00:37:03.772Z,28.6
2018-03-07T00:37:53.556Z,30.6
2018-03-07T00:38:44.121Z,33.6
2018-03-07T00:39:33.774Z,34.9
2018-03-07T00:40:24.226Z,33.6
2018-03-07T00:41:13.042Z,33
2018-03-07T00:42:03.596Z,32.8
2018-03-07T00:42:53.966Z,32.7
2018-03-07T00:43:41.885Z,32.8
2018-03-07T00:44:32.343Z,32.8
2018-03-07T00:45:21.729Z,32.8
2018-03-07T00:46:12.411Z,32.7
2018-03-07T00:47:02.564Z,32.6
2018-03-07T00:47:52.724Z,32.5
2018-03-07T00:48:42.241Z,32.4
2018-03-07T00:49:31.517Z,32.3
2018-03-07T00:50:21.663Z,32.1
2018-03-07T00:51:12.049Z,31.9
2018-03-07T00:52:02.514Z,31.8
2018-03-07T00:52:53.613Z,31.6
2018-03-07T00:53:42.186Z,31.4
2018-03-07T00:54:32.626Z,31.3
2018-03-07T00:55:24.011Z,31.1
2018-03-07T00:56:13.765Z,30.9
2018-03-07T00:57:04.728Z,30.8
2018-03-07T00:57:54.486Z,30.6
2018-03-07T00:58:43.688Z,30.4
2018-03-07T00:59:34.816Z,30.3
2018-03-07T01:00:24.865Z,30.2
2018-03-07T01:01:14.961Z,30
2018-03-07T01:02:04.477Z,29.9
2018-03-07T01:02:55.070Z,29.7
2018-03-07T01:03:44.293Z,28.6
2018-03-07T01:04:34.365Z,27.3
2018-03-07T01:05:25.008Z,27.4
2018-03-07T01:06:15.560Z,27.4
2018-03-07T01:07:06.221Z,27.9
2018-03-07T01:07:55.113Z,29.1
2018-03-07T01:08:45.450Z,31.4
2018-03-07T01:09:35.715Z,34.3
2018-03-07T01:10:25.018Z,34.6
2018-03-07T01:11:15.355Z,33.3
2018-03-07T01:12:05.509Z,32.8
2018-03-07T01:12:55.645Z,32.6
2018-03-07T01:13:46.120Z,32.6
2018-03-07T01:14:36.147Z,32.6
2018-03-07T01:15:25.932Z,32.6
2018-03-07T01:16:16.144Z,32.6
2018-03-07T01:17:06.280Z,32.6
2018-03-07T01:17:54.982Z,32.4
2018-03-07T01:18:46.375Z,32.4
2018-03-07T01:19:36.548Z,32.3
2018-03-07T01:20:26.730Z,32.1
2018-03-07T01:21:16.836Z,32
2018-03-07T01:22:06.912Z,31.8
2018-03-07T01:22:56.618Z,31.6
2018-03-07T01:23:46.999Z,31.5
2018-03-07T01:24:36.799Z,31.3
2018-03-07T01:25:26.903Z,31.1
2018-03-07T01:26:16.914Z,31
2018-03-07T01:27:06.411Z,30.8
2018-03-07T01:27:56.104Z,30.7
2018-03-07T01:28:46.777Z,30.5
2018-03-07T01:29:36.520Z,30.3
2018-03-07T01:30:27.485Z,30.3
2018-03-07T01:31:16.133Z,30.1
2018-03-07T01:32:06.749Z,29.9
2018-03-07T01:32:56.618Z,29.8
2018-03-07T01:33:46.885Z,29.6
2018-03-07T01:34:36.946Z,28
2018-03-07T01:35:26.488Z,27.3
2018-03-07T01:36:17.368Z,27.3
2018-03-07T01:37:07.621Z,27.3
2018-03-07T01:37:57.981Z,27.9
2018-03-07T01:38:48.296Z,29.3
2018-03-07T01:39:37.814Z,32
2018-03-07T01:40:27.843Z,34.8
2018-03-07T01:41:17.596Z,34.1
2018-03-07T01:42:07.694Z,33
2018-03-07T01:42:57.734Z,32.6
2018-03-07T01:43:47.530Z,32.4
2018-03-07T01:44:38.141Z,32.4
2018-03-07T01:45:27.366Z,32.4
2018-03-07T01:46:17.966Z,32.5
2018-03-07T01:47:07.817Z,32.5
2018-03-07T01:47:58.374Z,32.4
2018-03-07T01:48:48.711Z,32.4
2018-03-07T01:49:38.213Z,32.3
2018-03-07T01:50:28.838Z,32.1
2018-03-07T01:51:18.340Z,32
2018-03-07T01:52:08.357Z,31.9
2018-03-07T01:52:57.866Z,31.8
2018-03-07T01:53:47.943Z,31.6
2018-03-07T01:54:39.070Z,31.4
2018-03-07T01:55:29.155Z,31.2
2018-03-07T01:56:18.655Z,31.1
2018-03-07T01:57:09.018Z,30.9
2018-03-07T01:57:59.067Z,30.8
2018-03-07T01:58:48.818Z,30.6
2018-03-07T01:59:38.905Z,30.4
2018-03-07T02:00:29.274Z,30.3
2018-03-07T02:01:19.836Z,30.1
2018-03-07T02:02:09.337Z,30
2018-03-07T02:02:58.966Z,29.8
2018-03-07T02:03:49.749Z,29.7
2018-03-07T02:04:38.962Z,29.1
2018-03-07T02:05:29.004Z,27.5
2018-03-07T02:06:19.363Z,27.3
2018-03-07T02:07:08.244Z,27.2
2018-03-07T02:07:58.357Z,27.4
2018-03-07T02:08:49.622Z,28.1
2018-03-07T02:09:39.639Z,29.6
2018-03-07T02:10:29.942Z,32.3
2018-03-07T02:11:19.675Z,35
2018-03-07T02:12:10.292Z,34.1
2018-03-07T02:12:58.233Z,33.1
2018-03-07T02:13:49.148Z,32.6
2018-03-07T02:14:38.758Z,32.5
2018-03-07T02:15:28.832Z,32.5
2018-03-07T02:16:18.506Z,32.5
2018-03-07T02:17:09.547Z,32.6
2018-03-07T02:17:59.022Z,32.6
2018-03-07T02:18:49.488Z,32.5
2018-03-07T02:19:38.451Z,32.4
2018-03-07T02:20:29.196Z,32.3
2018-03-07T02:21:18.356Z,32.2
2018-03-07T02:22:09.056Z,32.1
2018-03-07T02:22:58.335Z,31.9
2018-03-07T02:23:48.216Z,31.8
2018-03-07T02:24:39.001Z,31.6
2018-03-07T02:25:29.623Z,31.4
2018-03-07T02:26:18.501Z,31.3
2018-03-07T02:27:08.889Z,31.1
2018-03-07T02:27:59.679Z,30.9
2018-03-07T02:28:49.206Z,30.8
2018-03-07T02:29:40.149Z,30.6
2018-03-07T02:30:28.962Z,30.4
2018-03-07T02:31:19.983Z,30.3
2018-03-07T02:32:09.886Z,30.2
2018-03-07T02:32:59.832Z,30
2018-03-07T02:33:50.743Z,29.9
2018-03-07T02:34:39.456Z,29.7
2018-03-07T02:35:30.985Z,29.6
2018-03-07T02:37:11.139Z,27.1
2018-03-07T02:37:59.488Z,27.1
2018-03-07T02:38:50.700Z,27.2
2018-03-07T02:39:40.171Z,27.6
2018-03-07T02:40:30.896Z,28.8
2018-03-07T02:41:19.994Z,31.1
2018-03-07T02:42:09.165Z,33.9
2018-03-07T02:42:59.791Z,34.7
2018-03-07T02:43:51.249Z,33.2
2018-03-07T02:44:39.730Z,32.6
2018-03-07T02:45:31.879Z,32.3
2018-03-07T02:46:20.495Z,32.3
2018-03-07T02:47:11.658Z,32.3
2018-03-07T02:48:02.013Z,32.4
2018-03-07T02:48:52.644Z,32.4
2018-03-07T02:49:42.409Z,32.4
2018-03-07T02:50:32.139Z,32.3
2018-03-07T02:51:22.499Z,32.3
2018-03-07T02:52:13.429Z,32.1
2018-03-07T02:53:02.614Z,32
2018-03-07T02:53:52.509Z,31.9
2018-03-07T02:54:43.005Z,31.7
2018-03-07T02:55:32.556Z,31.6
2018-03-07T02:56:22.861Z,31.4
2018-03-07T02:57:12.898Z,31.2
2018-03-07T02:58:02.453Z,31.1
2018-03-07T02:58:53.233Z,30.9
2018-03-07T02:59:42.775Z,30.8
2018-03-07T03:00:32.925Z,30.6
2018-03-07T03:01:23.451Z,30.4
2018-03-07T03:02:13.532Z,30.3
2018-03-07T03:03:03.086Z,30.1
2018-03-07T03:03:53.075Z,30
2018-03-07T03:04:43.940Z,29.8
2018-03-07T03:05:33.214Z,29.7
2018-03-07T03:06:23.597Z,29.5
2018-03-07T03:07:13.284Z,27.8
2018-03-07T03:08:03.343Z,27
2018-03-07T03:08:53.960Z,27
2018-03-07T03:09:43.916Z,27.1
2018-03-07T03:10:34.378Z,27.4
2018-03-07T03:11:24.424Z,28.4
2018-03-07T03:12:14.477Z,30.3
2018-03-07T03:13:03.935Z,33
2018-03-07T03:13:53.965Z,34.9
2018-03-07T03:14:44.577Z,33.3
2018-03-07T03:15:33.325Z,32.4
2018-03-07T03:16:25.035Z,32.2
2018-03-07T03:17:14.757Z,32.1
2018-03-07T03:18:04.021Z,32.1
2018-03-07T03:18:54.594Z,32.2
2018-03-07T03:19:45.248Z,32.3
2018-03-07T03:20:34.719Z,32.3
2018-03-07T03:21:25.025Z,32.2
2018-03-07T03:22:15.111Z,32.1
2018-03-07T03:23:04.892Z,32
2018-03-07T03:23:55.249Z,31.9
2018-03-07T03:24:44.784Z,31.8
2018-03-07T03:25:35.427Z,31.6
2018-03-07T03:26:24.577Z,31.5
2018-03-07T03:27:15.716Z,31.4
2018-03-07T03:28:04.674Z,31.2
2018-03-07T03:28:55.331Z,31.1
2018-03-07T03:29:45.117Z,30.9
2018-03-07T03:30:34.333Z,30.8
2018-03-07T03:31:25.303Z,30.6
2018-03-07T03:32:15.002Z,30.4
2018-03-07T03:33:05.957Z,30.3
2018-03-07T03:33:55.617Z,30.1
2018-03-07T03:34:45.411Z,30
2018-03-07T03:35:35.069Z,29.8
2018-03-07T03:36:24.154Z,29.7
2018-03-07T03:37:14.295Z,29.4
2018-03-07T03:38:04.979Z,27.7
2018-03-07T03:38:54.511Z,26.9
2018-03-07T03:39:45.014Z,26.9
2018-03-07T03:40:35.109Z,27
2018-03-07T03:41:24.684Z,27.3
2018-03-07T03:42:14.312Z,28.1
2018-03-07T03:43:06.270Z,29.6
2018-03-07T03:43:56.338Z,32.2
2018-03-07T03:44:46.621Z,34.8
2018-03-07T03:45:36.513Z,33.5
2018-03-07T03:46:26.196Z,32.3
2018-03-07T03:47:16.577Z,31.9
2018-03-07T03:48:06.651Z,31.9
2018-03-07T03:48:56.429Z,31.9
2018-03-07T03:49:46.253Z,31.9
2018-03-07T03:50:36.773Z,32.1
2018-03-07T03:51:27.396Z,32.1
2018-03-07T03:52:16.063Z,32.1
2018-03-07T03:53:06.993Z,32
2018-03-07T03:53:56.482Z,31.9
2018-03-07T03:54:47.264Z,31.7
2018-03-07T03:55:36.858Z,29.4
2018-03-07T03:56:26.907Z,28.1
2018-03-07T03:57:16.698Z,27.4
2018-03-07T03:58:07.440Z,27.1
2018-03-07T03:58:57.301Z,27.1
2018-03-07T03:59:47.093Z,27.2
2018-03-07T04:00:37.170Z,27.3
2018-03-07T04:01:27.040Z,27.2
2018-03-07T04:02:16.553Z,26.2
2018-03-07T04:03:06.394Z,26.3
2018-03-07T04:03:57.295Z,26.6
2018-03-07T04:04:47.470Z,26.9
2018-03-07T04:05:37.554Z,27.7
2018-03-07T04:06:28.462Z,29
2018-03-07T04:07:17.674Z,31.5
2018-03-07T04:08:06.657Z,34.3
2018-03-07T04:08:58.133Z,34
2018-03-07T04:09:48.353Z,32.7
2018-03-07T04:10:38.457Z,32.2
2018-03-07T04:11:27.750Z,32.1
2018-03-07T04:12:17.790Z,32.1
2018-03-07T04:13:07.277Z,32.2
2018-03-07T04:13:57.603Z,32.3
2018-03-07T04:14:48.562Z,32.3
2018-03-07T04:15:37.207Z,32.3
2018-03-07T04:16:27.859Z,32.3
2018-03-07T04:17:18.179Z,32.2
2018-03-07T04:18:08.426Z,30.6
2018-03-07T04:18:57.970Z,28.8
2018-03-07T04:20:37.987Z,27.4
2018-03-07T04:21:29.201Z,27.3
2018-03-07T04:22:18.669Z,27.3
2018-03-07T04:23:08.167Z,27.4
2018-03-07T04:23:58.775Z,27.5
2018-03-07T04:24:48.611Z,27.6
2018-03-07T04:25:39.699Z,27.4
2018-03-07T04:26:29.226Z,26.3
2018-03-07T04:27:19.299Z,26.5
2018-03-07T04:28:09.111Z,26.7
2018-03-07T04:28:58.330Z,26.9
2018-03-07T04:29:49.477Z,27.8
2018-03-07T04:30:39.237Z,29.3
2018-03-07T04:31:29.831Z,31.8
2018-03-07T04:32:19.901Z,34.4
2018-03-07T04:33:09.981Z,33.3
2018-03-07T04:33:58.876Z,32.1
2018-03-07T04:34:49.277Z,31.8
2018-03-07T04:35:38.990Z,31.6
2018-03-07T04:36:28.229Z,31.8
2018-03-07T04:37:20.526Z,31.8
2018-03-07T04:38:09.748Z,31.9
2018-03-07T04:38:59.840Z,31.9
2018-03-07T04:39:49.631Z,31.9
2018-03-07T04:40:39.218Z,31.9
2018-03-07T04:41:30.013Z,31.8
2018-03-07T04:42:20.363Z,29.7
2018-03-07T04:43:10.116Z,28.2
2018-03-07T04:44:00.705Z,27.5
2018-03-07T04:44:50.520Z,27.3
2018-03-07T04:45:40.339Z,27.3
2018-03-07T04:46:30.876Z,27.4
2018-03-07T04:47:20.923Z,27.4
2018-03-07T04:48:11.112Z,27.5
2018-03-07T04:49:00.833Z,27.6
2018-03-07T04:49:50.840Z,27.2
2018-03-07T04:50:41.185Z,26.3
2018-03-07T04:51:31.271Z,26.4
2018-03-07T04:52:19.077Z,26.8
2018-03-07T04:53:08.736Z,27.1
2018-03-07T04:53:59.399Z,27.9
2018-03-07T04:54:49.059Z,30.1
2018-03-07T04:55:39.459Z,32.9
2018-03-07T04:56:28.587Z,34.5
2018-03-07T04:57:21.990Z,33
2018-03-07T04:58:11.192Z,32.3
2018-03-07T04:59:01.300Z,32.1
2018-03-07T04:59:50.956Z,32.1
2018-03-07T05:00:41.317Z,32.2
2018-03-07T05:01:31.997Z,32.3
2018-03-07T05:02:21.696Z,32.3
2018-03-07T05:03:12.302Z,32.3
2018-03-07T05:04:01.492Z,32.3
2018-03-07T05:04:52.402Z,32.3
2018-03-07T05:05:41.636Z,32.1
2018-03-07T05:06:32.015Z,32
2018-03-07T05:07:22.560Z,31.9
2018-03-07T05:08:12.401Z,31.8
2018-03-07T05:09:02.398Z,31.6
2018-03-07T05:09:52.218Z,31.4
2018-03-07T05:10:42.568Z,31.3
2018-03-07T05:11:32.568Z,31.1
2018-03-07T05:12:22.936Z,30.9
2018-03-07T05:13:12.121Z,30.8
2018-03-07T05:14:01.950Z,30.6
2018-03-07T05:14:52.811Z,30.5
2018-03-07T05:15:43.123Z,30.4
2018-03-07T05:16:32.650Z,30.2
2018-03-07T05:17:23.250Z,30.1
2018-03-07T05:18:12.570Z,29.9
2018-03-07T05:19:03.079Z,29.8
2018-03-07T05:19:53.141Z,29.6
2018-03-07T05:21:33.582Z,27.1
2018-03-07T05:22:23.387Z,27
2018-03-07T05:23:13.403Z,27.3
2018-03-07T05:24:02.625Z,28.2
2018-03-07T05:24:52.820Z,30.3
2018-03-07T05:25:43.016Z,33.3
2018-03-07T05:26:32.229Z,35.3
2018-03-07T05:27:23.172Z,34.1
2018-03-07T05:28:13.195Z,33.4
2018-03-07T05:29:03.232Z,33.1
2018-03-07T05:29:53.866Z,33.1
2018-03-07T05:30:43.352Z,33
2018-03-07T05:31:34.007Z,33.1
2018-03-07T05:32:23.492Z,33
2018-03-07T05:33:14.341Z,33
2018-03-07T05:34:03.592Z,32.9
2018-03-07T05:34:54.460Z,32.8
2018-03-07T05:35:44.076Z,32.7
2018-03-07T05:36:34.058Z,32.5
2018-03-07T05:37:24.674Z,32.4
2018-03-07T05:38:14.460Z,32.2
2018-03-07T05:39:04.190Z,32
2018-03-07T05:39:54.032Z,31.8
2018-03-07T05:40:44.350Z,31.6
2018-03-07T05:41:34.096Z,31.4
2018-03-07T05:42:24.966Z,31.3
2018-03-07T05:43:14.670Z,31.1
2018-03-07T05:44:03.759Z,30.9
2018-03-07T05:44:54.306Z,30.8
2018-03-07T05:45:44.146Z,30.6
2018-03-07T05:46:34.727Z,30.4
2018-03-07T05:47:24.782Z,30.3
2018-03-07T05:48:14.856Z,30.1
2018-03-07T05:49:05.232Z,30
2018-03-07T05:49:54.684Z,29.4
2018-03-07T05:50:44.469Z,27.6
2018-03-07T05:51:35.085Z,27.3
2018-03-07T05:52:24.858Z,27.2
2018-03-07T05:54:05.246Z,29.4
2018-03-07T05:54:55.308Z,32.3
2018-03-07T05:55:44.515Z,35.1
2018-03-07T05:56:35.160Z,34.5
2018-03-07T05:57:24.673Z,33.8
2018-03-07T05:58:15.565Z,33.4
2018-03-07T05:59:05.863Z,33.4
2018-03-07T05:59:55.638Z,33.3
2018-03-07T06:00:45.660Z,33.3
2018-03-07T06:01:35.532Z,33.3
2018-03-07T06:02:25.539Z,33.3
2018-03-07T06:03:16.114Z,33.2
2018-03-07T06:04:05.923Z,33.1
2018-03-07T06:04:55.207Z,32.9
2018-03-07T06:05:45.750Z,32.8
2018-03-07T06:06:35.261Z,32.6
2018-03-07T06:07:25.597Z,32.4
2018-03-07T06:08:15.934Z,32.3
2018-03-07T06:09:06.567Z,32.1
2018-03-07T06:09:56.062Z,31.9
2018-03-07T06:10:45.264Z,31.7
2018-03-07T06:11:36.164Z,31.5
2018-03-07T06:12:26.217Z,31.3
2018-03-07T06:13:15.738Z,31.1
2018-03-07T06:14:06.619Z,31
2018-03-07T06:14:56.669Z,30.8
2018-03-07T06:15:47.333Z,30.6
2018-03-07T06:16:36.794Z,30.4
2018-03-07T06:17:26.609Z,30.3
2018-03-07T06:18:17.420Z,28.4
2018-03-07T06:19:05.804Z,27.5
2018-03-07T06:19:56.438Z,27.3
2018-03-07T06:20:47.343Z,28.2
2018-03-07T06:21:36.690Z,30.6
2018-03-07T06:22:26.449Z,33.9
2018-03-07T06:23:16.626Z,35
2018-03-07T06:24:07.421Z,34.1
2018-03-07T06:24:56.277Z,33.6
2018-03-07T06:25:46.949Z,33.4
2018-03-07T06:26:37.513Z,33.4
2018-03-07T06:27:26.731Z,33.4
2018-03-07T06:28:17.321Z,33.4
2018-03-07T06:29:07.373Z,33.4
2018-03-07T06:29:57.264Z,33.4
2018-03-07T06:30:46.940Z,33.3
2018-03-07T06:31:37.315Z,33.2
2018-03-07T06:32:27.896Z,33
2018-03-07T06:33:18.247Z,32.8
2018-03-07T06:34:08.168Z,32.7
2018-03-07T06:34:58.070Z,32.4
2018-03-07T06:35:47.893Z,32.3
2018-03-07T06:36:37.929Z,32.1
2018-03-07T06:37:28.168Z,31.9
2018-03-07T06:38:17.705Z,31.7
2018-03-07T06:39:08.076Z,31.5
2018-03-07T06:39:55.643Z,31.3
2018-03-07T06:40:47.748Z,31.1
2018-03-07T06:41:36.853Z,30.9
2018-03-07T06:42:26.845Z,30.8
2018-03-07T06:43:16.860Z,30.6
2018-03-07T06:44:07.057Z,30.4
2018-03-07T06:44:56.886Z,30.3
2018-03-07T06:45:45.064Z,30.1
2018-03-07T06:46:36.396Z,30
2018-03-07T06:47:27.340Z,29
2018-03-07T06:48:17.362Z,27.6
2018-03-07T06:49:06.469Z,27.3
2018-03-07T06:49:56.651Z,27.5
2018-03-07T06:50:48.146Z,29.1
2018-03-07T06:51:37.014Z,32.5
2018-03-07T06:52:27.094Z,35.2
2018-03-07T06:53:18.787Z,34.7
2018-03-07T06:54:07.152Z,34.1
2018-03-07T06:54:57.602Z,33.8
2018-03-07T06:55:48.154Z,33.8
2018-03-07T06:56:36.490Z,33.7
2018-03-07T06:57:27.419Z,33.7
2018-03-07T06:58:18.535Z,33.7
2018-03-07T06:59:07.286Z,33.6
2018-03-07T07:00:00.311Z,33.6
2018-03-07T07:00:49.835Z,33.4
2018-03-07T07:01:39.905Z,33.3
2018-03-07T07:02:29.678Z,33.1
2018-03-07T07:03:20.154Z,32.9
2018-03-07T07:04:09.706Z,32.8
2018-03-07T07:04:59.801Z,32.6
2018-03-07T07:05:50.689Z,32.3
2018-03-07T07:06:40.799Z,32.1
2018-03-07T07:07:30.031Z,31.9
2018-03-07T07:08:20.064Z,31.8
2018-03-07T07:09:10.132Z,31.6
2018-03-07T07:09:59.909Z,31.4
2018-03-07T07:10:50.219Z,31.2
2018-03-07T07:11:40.387Z,31
2018-03-07T07:12:30.655Z,30.8
2018-03-07T07:13:20.435Z,30.7
2018-03-07T07:14:10.448Z,30.5
2018-03-07T07:14:58.193Z,30.3
2018-03-07T07:15:49.400Z,30.2
2018-03-07T07:16:39.093Z,30
2018-03-07T07:17:28.156Z,29.1
2018-03-07T07:18:19.196Z,27.6
2018-03-07T07:19:08.510Z,27.3
2018-03-07T07:19:59.085Z,27.7
2018-03-07T07:20:50.072Z,29.6
2018-03-07T07:21:40.075Z,33
2018-03-07T07:22:29.975Z,35.4
2018-03-07T07:23:20.120Z,34.7
2018-03-07T07:24:10.654Z,34.1
2018-03-07T07:24:59.680Z,33.9
2018-03-07T07:25:49.908Z,33.8
2018-03-07T07:26:41.330Z,33.8
2018-03-07T07:27:31.392Z,33.8
2018-03-07T07:28:21.745Z,33.8
2018-03-07T07:29:11.798Z,33.7
2018-03-07T07:30:01.380Z,33.6
2018-03-07T07:30:51.914Z,33.5
2018-03-07T07:31:41.935Z,33.3
2018-03-07T07:32:31.527Z,33.2
2018-03-07T07:33:20.498Z,33
2018-03-07T07:34:09.925Z,32.8
2018-03-07T07:35:00.380Z,32.6
2018-03-07T07:35:50.357Z,32.4
2018-03-07T07:36:40.931Z,32.2
2018-03-07T07:37:31.104Z,32
2018-03-07T07:38:21.125Z,31.8
2018-03-07T07:39:11.112Z,31.6
2018-03-07T07:40:01.871Z,31.4
2018-03-07T07:40:50.604Z,31.2
2018-03-07T07:41:41.768Z,31.1
2018-03-07T07:42:31.357Z,30.9
2018-03-07T07:43:23.860Z,30.7
2018-03-07T07:44:13.470Z,30.5
2018-03-07T07:45:02.332Z,30.4
2018-03-07T07:45:52.699Z,30.2
2018-03-07T07:46:42.736Z,30
2018-03-07T07:47:33.008Z,29.3
2018-03-07T07:48:23.414Z,27.7
2018-03-07T07:49:12.939Z,27.3
2018-03-07T07:50:03.232Z,27.8
2018-03-07T07:50:53.182Z,29.6
2018-03-07T07:51:42.877Z,32.9
2018-03-07T07:52:32.609Z,35.3
2018-03-07T07:53:23.761Z,34.4
2018-03-07T07:55:31.227Z,33.9
2018-03-07T07:55:41.321Z,33.7
2018-03-07T07:56:32.411Z,33.7
2018-03-07T07:57:22.453Z,33.7
2018-03-07T07:58:12.791Z,33.6
2018-03-07T07:59:02.289Z,33.6
2018-03-07T07:59:53.214Z,33.5
2018-03-07T08:00:43.426Z,33.4
2018-03-07T08:01:31.575Z,33.3
2018-03-07T08:02:20.819Z,33.1
2018-03-07T08:03:12.935Z,33
2018-03-07T08:05:06.041Z,32.8
2018-03-07T08:05:15.483Z,32.4
2018-03-07T08:06:06.261Z,32.3
2018-03-07T08:06:56.553Z,32.1
2018-03-07T08:08:48.212Z,31.6
2018-03-07T08:09:28.054Z,31.5
2018-03-07T08:10:15.907Z,31.3
2018-03-07T08:11:05.977Z,31.1
2018-03-07T08:12:37.362Z,31
2018-03-07T08:12:43.994Z,30.6
2018-03-07T08:13:37.363Z,30.6
2018-03-07T08:14:27.392Z,30.4
2018-03-07T08:16:47.791Z,30.3
2018-03-07T08:16:58.975Z,28.4
2018-03-07T08:17:49.693Z,28.1
2018-03-07T08:18:39.733Z,27.4
2018-03-07T08:19:30.102Z,27.7
2018-03-07T08:20:20.494Z,29.4
2018-03-07T08:21:09.622Z,32.6
2018-03-07T08:21:59.984Z,35.3
2018-03-07T08:22:50.612Z,34.7
2018-03-07T08:23:40.374Z,34.1
2018-03-07T08:24:30.735Z,33.8
2018-03-07T08:25:20.301Z,33.8
2018-03-07T08:26:10.877Z,33.8
2018-03-07T08:27:00.945Z,33.8
2018-03-07T08:27:51.090Z,33.8
2018-03-07T08:28:41.073Z,33.7
2018-03-07T08:29:31.113Z,33.6
2018-03-07T08:30:20.608Z,33.5
2018-03-07T08:31:10.930Z,33.3
2018-03-07T08:32:00.676Z,33.1
2018-03-07T08:32:50.796Z,32.9
2018-03-07T08:33:41.111Z,32.8
2018-03-07T08:34:31.229Z,32.5
2018-03-07T08:35:21.209Z,32.3
2018-03-07T08:36:11.286Z,32.1
2018-03-07T08:37:00.719Z,31.9
2018-03-07T08:37:51.389Z,31.7
2018-03-07T08:38:40.963Z,31.5
2018-03-07T08:39:31.486Z,31.3
2018-03-07T08:40:21.258Z,31.1
2018-03-07T08:41:10.757Z,30.9
2018-03-07T08:42:01.957Z,30.7
2018-03-07T08:42:51.743Z,30.5
2018-03-07T08:43:42.074Z,30.4
2018-03-07T08:44:31.697Z,30.2
2018-03-07T08:45:21.863Z,30
2018-03-07T08:46:12.636Z,29.9
2018-03-07T08:47:01.458Z,29.8
2018-03-07T08:47:51.523Z,28.1
2018-03-07T08:48:42.394Z,27.4
2018-03-07T08:49:32.442Z,27.5
2018-03-07T08:50:21.954Z,29
2018-03-07T08:51:11.964Z,32.3
2018-03-07T08:52:02.617Z,35.2
2018-03-07T08:52:51.807Z,35
2018-03-07T08:53:41.886Z,34.5
2018-03-07T08:54:31.491Z,34.3
2018-03-07T08:55:22.291Z,34.2
2018-03-07T08:56:12.608Z,34.1
2018-03-07T08:57:01.512Z,34.1
2018-03-07T08:57:52.243Z,34.1
2018-03-07T08:58:42.547Z,33.9
2018-03-07T08:59:28.221Z,33.8
2018-03-07T09:00:22.043Z,33.7
2018-03-07T09:01:12.129Z,33.5
2018-03-07T09:02:01.149Z,33.3
2018-03-07T09:02:50.803Z,33.1
2018-03-07T09:03:40.548Z,32.9
2018-03-07T09:04:31.494Z,32.6
2018-03-07T09:05:22.523Z,32.4
2018-03-07T09:06:11.838Z,32.2
2018-03-07T09:07:02.904Z,32
2018-03-07T09:07:52.299Z,31.8
2018-03-07T09:08:43.493Z,31.6
2018-03-07T09:09:33.240Z,31.3
2018-03-07T09:10:24.121Z,31.1
2018-03-07T09:11:13.935Z,30.9
2018-03-07T09:12:03.156Z,30.8
2018-03-07T09:12:52.679Z,30.6
2018-03-07T09:13:43.542Z,30.4
2018-03-07T09:14:33.889Z,30.2
2018-03-07T09:15:23.378Z,30.1
2018-03-07T09:16:13.190Z,29.9
2018-03-07T09:17:04.071Z,29.8
2018-03-07T09:17:53.895Z,28.8
2018-03-07T09:18:43.883Z,27.6
2018-03-07T09:19:33.059Z,27.4
2018-03-07T09:20:24.359Z,28.6
2018-03-07T09:21:14.754Z,31.9
2018-03-07T09:22:04.154Z,35.1
2018-03-07T09:22:54.508Z,35.4
2018-03-07T09:23:44.027Z,34.9
2018-03-07T09:24:33.829Z,34.6
2018-03-07T09:25:22.441Z,34.6
2018-03-07T09:26:13.413Z,34.4
2018-03-07T09:27:04.822Z,34.4
2018-03-07T09:27:54.276Z,34.3
2018-03-07T09:28:44.066Z,34.3
2018-03-07T09:29:33.593Z,34.1
2018-03-07T09:30:24.463Z,33.9
2018-03-07T09:31:13.328Z,33.8
2018-03-07T09:32:04.684Z,33.6
2018-03-07T09:32:54.943Z,33.3
2018-03-07T09:33:44.382Z,33.1
2018-03-07T09:34:34.861Z,32.9
2018-03-07T09:35:25.073Z,32.6
2018-03-07T09:36:14.113Z,32.4
2018-03-07T09:37:04.622Z,32.1
2018-03-07T09:37:55.513Z,31.9
2018-03-07T09:38:45.641Z,31.7
2018-03-07T09:39:35.355Z,31.4
2018-03-07T09:40:25.742Z,31.3
2018-03-07T09:41:15.492Z,31.1
2018-03-07T09:42:05.859Z,30.9
2018-03-07T09:42:55.863Z,30.7
2018-03-07T09:43:45.927Z,30.5
2018-03-07T09:44:36.060Z,30.4
2018-03-07T09:45:25.510Z,30.1
2018-03-07T09:46:16.280Z,30
2018-03-07T09:47:05.603Z,29.9
2018-03-07T09:47:54.920Z,29.7
2018-03-07T09:48:45.249Z,29.5
2018-03-07T09:49:35.551Z,29.4
2018-03-07T09:50:25.663Z,29.3
2018-03-07T09:51:16.120Z,29.1
2018-03-07T09:52:03.818Z,28.9
2018-03-07T09:52:52.867Z,28.9
2018-03-07T09:53:43.134Z,28.8
2018-03-07T09:54:35.437Z,28.6
2018-03-07T09:55:24.222Z,28.4
2018-03-07T09:56:15.767Z,28.3
2018-03-07T09:57:04.309Z,28.2
2018-03-07T09:57:54.232Z,28.1
2018-03-07T09:58:45.874Z,27.9
2018-03-07T10:00:22.984Z,27.7
2018-03-07T10:01:14.524Z,27.6
2018-03-07T10:02:05.253Z,27.4
2018-03-07T10:02:54.514Z,27.3
2018-03-07T10:03:45.032Z,27.3
2018-03-07T10:04:34.899Z,27.1
2018-03-07T10:05:26.769Z,27
2018-03-07T10:06:15.978Z,26.8
2018-03-07T10:07:07.593Z,25.9
2018-03-07T10:07:56.860Z,25.7
2018-03-07T10:08:46.625Z,26.1
2018-03-07T10:09:37.310Z,26.9
2018-03-07T10:10:26.801Z,28.9
2018-03-07T10:11:16.085Z,32.6
2018-03-07T10:12:07.682Z,35.4
2018-03-07T10:12:56.404Z,35.4
2018-03-07T10:13:47.538Z,35.1
2018-03-07T10:14:37.561Z,34.9
2018-03-07T10:15:27.189Z,34.8
2018-03-07T10:17:51.169Z,34.8
2018-03-07T10:18:01.634Z,34.5
2018-03-07T10:18:51.688Z,34.4
2018-03-07T10:19:42.424Z,34.3
2018-03-07T10:20:32.378Z,34.1
2018-03-07T10:21:22.822Z,33.9
2018-03-07T10:22:13.031Z,33.7
2018-03-07T10:23:03.743Z,33.4
2018-03-07T10:23:53.690Z,33.2
2018-03-07T10:24:42.903Z,33
2018-03-07T10:25:33.535Z,32.8
2018-03-07T10:26:23.638Z,32.6
2018-03-07T10:27:13.378Z,32.3
2018-03-07T10:28:02.731Z,32.1
2018-03-07T10:28:52.760Z,31.8
2018-03-07T10:29:43.665Z,31.6
2018-03-07T10:30:33.148Z,31.4
2018-03-07T10:31:23.684Z,31.2
2018-03-07T10:32:13.240Z,31
2018-03-07T10:33:03.826Z,30.8
2018-03-07T10:33:53.445Z,30.6
2018-03-07T10:34:43.982Z,30.5
2018-03-07T10:35:32.988Z,30.3
2018-03-07T10:36:23.722Z,30.1
2018-03-07T10:37:13.789Z,29.9
2018-03-07T10:38:04.200Z,29.8
2018-03-07T10:38:54.491Z,29.6
2018-03-07T10:39:44.687Z,29.5
2018-03-07T10:40:34.319Z,29.4
2018-03-07T10:41:24.057Z,29.3
2018-03-07T10:42:14.395Z,29.1
2018-03-07T10:43:05.056Z,28.9
2018-03-07T10:43:54.256Z,28.8
2018-03-07T10:44:44.425Z,28.7
2018-03-07T10:45:35.202Z,28.6
2018-03-07T10:46:25.007Z,28.4
2018-03-07T10:47:15.524Z,28.3
2018-03-07T10:48:05.187Z,28.2
2018-03-07T10:48:55.454Z,28.1
2018-03-07T10:49:45.534Z,28
2018-03-07T10:50:34.536Z,27.9
2018-03-07T10:51:24.620Z,27.8
2018-03-07T10:52:12.764Z,27.6
2018-03-07T10:53:03.416Z,27.5
2018-03-07T10:53:54.706Z,27.3
2018-03-07T10:54:44.449Z,27.2
2018-03-07T10:55:34.046Z,27.1
2018-03-07T10:56:24.283Z,27
2018-03-07T10:57:13.682Z,26.3
2018-03-07T10:58:03.730Z,25.4
2018-03-07T10:58:56.173Z,26
2018-03-07T10:59:46.230Z,26.4
2018-03-07T11:00:36.280Z,27.5
2018-03-07T11:01:25.190Z,30.1
2018-03-07T11:02:15.651Z,33.6
2018-03-07T11:03:06.038Z,35.9
2018-03-07T11:03:55.948Z,35.9
2018-03-07T11:04:45.763Z,35.6
2018-03-07T11:05:36.360Z,35.3
2018-03-07T11:06:26.169Z,35.1
2018-03-07T11:07:16.180Z,35
2018-03-07T11:08:06.248Z,34.9
2018-03-07T11:08:56.933Z,34.8
2018-03-07T11:09:45.760Z,34.6
2018-03-07T11:10:39.673Z,34.4
2018-03-07T11:11:26.717Z,34.2
2018-03-07T11:12:16.792Z,34
2018-03-07T11:13:06.320Z,33.7
2018-03-07T11:13:57.368Z,33.4
2018-03-07T11:14:46.967Z,33.2
2018-03-07T11:15:36.465Z,32.9
2018-03-07T11:16:26.245Z,32.7
2018-03-07T11:17:17.180Z,32.4